Time;durP1;ratioP1;P1;durP2;ratioP2;P2;SDS_P1;SDS_P2;PMS_P1;PMS_P2;Temp;Humidity;BMP_temperature;BMP_pressure;BME280_temperature;BME280_humidity;BME280_pressure;Samples;Min_cycle;Max_cycle;Signal;HPM_P1;HPM_P2
2022/10/01 00:02:05;;;;;;;10.87;4.30;;;12.80;74.00;;;;;;4998976;28;20512;-81
2022/10/01 00:04:31;;;;;;;10.23;5.20;;;12.70;75.30;;;;;;4998331;28;20453;-80
2022/10/01 00:07:03;;;;;;;8.33;3.80;;;12.50;79.20;;;;;;4998311;28;20497;-81
2022/10/01 00:09:30;;;;;;;10.37;4.27;;;12.40;90.60;;;;;;4998587;28;20438;-80
2022/10/01 00:11:58;;;;;;;11.50;5.00;;;12.20;80.80;;;;;;4998315;28;20962;-81
2022/10/01 00:14:25;;;;;;;9.90;4.90;;;11.90;85.90;;;;;;4999195;28;20465;-81
2022/10/01 00:16:53;;;;;;;7.20;4.73;;;11.80;88.70;;;;;;4998663;28;20473;-82
2022/10/01 00:19:21;;;;;;;10.87;5.73;;;11.60;90.00;;;;;;5000000;28;20457;-83
2022/10/01 00:21:48;;;;;;;7.87;4.20;;;11.60;91.10;;;;;;5000341;28;20454;-82
2022/10/01 00:24:15;;;;;;;9.93;5.10;;;11.50;91.60;;;;;;4999806;28;20454;-82
2022/10/01 00:26:44;;;;;;;9.13;4.73;;;11.40;92.60;;;;;;4999186;28;20482;-81
2022/10/01 00:29:16;;;;;;;8.73;6.70;;;11.40;92.40;;;;;;5000880;28;20951;-81
2022/10/01 00:31:45;;;;;;;9.13;7.50;;;11.30;94.30;;;;;;5000692;28;20858;-81
2022/10/01 00:34:14;;;;;;;10.30;9.30;;;11.20;95.30;;;;;;4999494;28;20458;-80
2022/10/01 00:36:41;;;;;;;9.50;8.57;;;11.20;96.10;;;;;;5001271;28;20894;-81
2022/10/01 00:39:09;;;;;;;9.17;5.87;;;11.20;96.00;;;;;;5001235;28;20465;-82
2022/10/01 00:41:36;;;;;;;7.27;6.57;;;11.30;95.20;;;;;;4999779;28;20458;-81
2022/10/01 00:44:24;;;;;;;9.27;5.57;;;11.30;95.90;;;;;;4998520;28;20553;-82
2022/10/01 00:46:52;;;;;;;9.70;6.17;;;11.40;95.30;;;;;;4998340;28;20540;-82
2022/10/01 00:49:23;;;;;;;13.73;7.60;;;11.30;95.40;;;;;;5001131;28;20458;-82
2022/10/01 00:51:53;;;;;;;7.60;5.90;;;11.30;95.40;;;;;;5001438;28;20489;-82
2022/10/01 00:54:24;;;;;;;9.13;7.27;;;11.30;95.70;;;;;;5001065;28;20450;-81
2022/10/01 00:56:53;;;;;;;8.47;7.20;;;11.30;96.30;;;;;;5001413;28;20485;-82
2022/10/01 00:59:20;;;;;;;7.70;6.97;;;11.30;96.80;;;;;;5000975;28;20450;-82
2022/10/01 01:01:47;;;;;;;8.23;7.10;;;11.30;96.30;;;;;;5001150;28;21053;-84
2022/10/01 01:04:16;;;;;;;16.13;14.77;;;11.30;96.40;;;;;;5000159;28;20457;-82
2022/10/01 01:06:46;;;;;;;19.37;17.93;;;11.30;97.30;;;;;;5000137;28;20518;-83
2022/10/01 01:09:13;;;;;;;29.00;27.40;;;11.30;97.00;;;;;;5001169;28;20458;-82
2022/10/01 01:11:48;;;;;;;52.83;50.40;;;11.30;97.80;;;;;;5000930;28;20462;-83
2022/10/01 01:14:19;;;;;;;116.03;111.87;;;11.20;98.60;;;;;;5000064;28;20472;-81
2022/10/01 01:16:51;;;;;;;130.63;126.03;;;11.20;98.20;;;;;;5000713;28;20474;-83
2022/10/01 01:19:33;;;;;;;109.17;105.27;;;11.20;99.30;;;;;;5000761;28;20461;-82
2022/10/01 01:22:06;;;;;;;387.93;376.27;;;11.10;99.10;;;;;;5002713;28;20485;-81
2022/10/01 01:24:45;;;;;;;535.10;517.90;;;11.10;99.90;;;;;;5000076;28;20922;-82
2022/10/01 01:27:24;;;;;;;436.83;423.43;;;11.00;99.90;;;;;;5001707;28;20863;-82
2022/10/01 01:29:55;;;;;;;340.37;330.17;;;11.00;99.90;;;;;;5001633;28;20453;-82
2022/10/01 01:32:25;;;;;;;235.90;228.50;;;11.20;99.90;;;;;;5001507;28;20438;-82
2022/10/01 01:34:55;;;;;;;347.60;337.00;;;11.20;99.90;;;;;;5000579;28;20481;-84
2022/10/01 01:37:26;;;;;;;320.50;310.63;;;11.10;99.90;;;;;;4999325;28;20474;-84
2022/10/01 01:39:56;;;;;;;348.87;338.17;;;11.10;99.90;;;;;;5000435;28;20449;-83
2022/10/01 01:42:27;;;;;;;371.60;360.40;;;11.10;99.90;;;;;;5000532;28;21017;-83
2022/10/01 01:44:58;;;;;;;374.20;362.80;;;11.10;99.90;;;;;;4997923;28;20973;-82
2022/10/01 01:47:29;;;;;;;397.27;384.80;;;11.10;99.90;;;;;;4999563;28;20485;-84
2022/10/01 01:49:57;;;;;;;424.67;411.50;;;11.00;99.90;;;;;;4999470;28;20847;-83
2022/10/01 01:52:24;;;;;;;442.80;429.13;;;11.10;99.90;;;;;;5000019;28;20476;-83
2022/10/01 01:54:51;;;;;;;314.73;305.33;;;11.00;99.90;;;;;;4999730;28;20465;-84
2022/10/01 01:57:19;;;;;;;457.57;443.23;;;11.20;99.90;;;;;;4998568;28;20855;-84
2022/10/01 01:59:47;;;;;;;373.93;362.50;;;11.10;99.90;;;;;;4998969;28;20807;-84
2022/10/01 02:02:18;;;;;;;477.73;462.30;;;11.10;99.90;;;;;;4999723;28;20457;-83
2022/10/01 02:04:47;;;;;;;336.40;326.40;;;11.10;99.90;;;;;;4997997;28;20446;-83
2022/10/01 02:07:42;;;;;;;311.70;302.23;;;11.10;99.90;;;;;;4998278;28;20486;-85
2022/10/01 02:10:18;;;;;;;280.47;271.77;;;11.10;99.90;;;;;;4998101;28;20461;-84
2022/10/01 02:13:03;;;;;;;360.13;349.17;;;11.10;99.90;;;;;;4998449;28;20442;-83
2022/10/01 02:15:37;;;;;;;254.33;246.40;;;11.10;99.90;;;;;;4997195;28;20548;-83
2022/10/01 02:18:12;;;;;;;286.60;277.63;;;11.10;99.90;;;;;;4997040;28;20480;-83
2022/10/01 02:20:45;;;;;;;369.00;357.57;;;11.00;99.90;;;;;;4997396;28;20448;-83
2022/10/01 02:23:16;;;;;;;325.20;315.10;;;11.00;99.90;;;;;;4997576;28;20458;-83
2022/10/01 02:25:48;;;;;;;432.97;419.10;;;11.00;99.90;;;;;;4996938;28;20446;-84
2022/10/01 02:28:18;;;;;;;253.00;245.37;;;11.00;99.90;;;;;;4995982;28;20485;-84
2022/10/01 02:30:47;;;;;;;348.60;338.13;;;11.00;99.90;;;;;;4994900;28;20961;-84
2022/10/01 02:33:17;;;;;;;432.40;418.97;;;11.10;99.90;;;;;;4995404;28;20450;-84
2022/10/01 02:35:46;;;;;;;491.13;475.00;;;11.00;99.90;;;;;;4994351;28;20461;-82
2022/10/01 02:38:15;;;;;;;527.13;508.57;;;10.90;99.90;;;;;;4995598;28;20453;-84
2022/10/01 02:40:44;;;;;;;457.27;442.57;;;10.80;99.90;;;;;;4995585;28;20572;-85
2022/10/01 02:43:14;;;;;;;440.43;426.57;;;10.90;99.90;;;;;;4995676;28;20458;-84
2022/10/01 02:45:46;;;;;;;604.13;580.97;;;11.00;99.90;;;;;;4994841;28;20457;-85
2022/10/01 02:48:16;;;;;;;738.60;703.07;;;10.90;99.90;;;;;;4995621;28;20482;-84
2022/10/01 02:50:48;;;;;;;722.17;688.17;;;10.90;99.90;;;;;;4994911;28;20500;-85
2022/10/01 02:53:20;;;;;;;700.73;668.53;;;10.90;99.90;;;;;;4995080;28;20977;-87
2022/10/01 02:55:48;;;;;;;753.13;715.10;;;10.90;99.90;;;;;;4994427;28;20458;-85
2022/10/01 02:58:14;;;;;;;708.37;675.83;;;10.90;99.90;;;;;;4994730;28;20461;-86
2022/10/01 03:00:41;;;;;;;599.93;576.97;;;10.90;99.90;;;;;;4994348;28;21092;-85
2022/10/01 03:03:07;;;;;;;502.07;484.77;;;11.00;99.90;;;;;;4994643;28;20202;-85
2022/10/01 03:05:35;;;;;;;660.83;632.37;;;11.00;99.90;;;;;;4995039;28;20951;-84
2022/10/01 03:08:02;;;;;;;771.70;728.50;;;11.00;99.90;;;;;;4995644;28;20489;-84
2022/10/01 03:10:29;;;;;;;781.70;735.93;;;10.80;99.90;;;;;;4996515;28;20454;-83
2022/10/01 03:12:56;;;;;;;796.87;747.13;;;10.90;99.90;;;;;;4997163;28;20548;-84
2022/10/01 03:15:22;;;;;;;804.07;749.70;;;10.80;99.90;;;;;;4995689;28;20522;-84
2022/10/01 03:17:51;;;;;;;800.30;744.13;;;10.90;99.90;;;;;;4995613;28;20466;-83
2022/10/01 03:20:18;;;;;;;799.37;742.77;;;10.80;99.90;;;;;;4997127;28;20454;-84
2022/10/01 03:22:46;;;;;;;817.40;762.77;;;10.90;99.90;;;;;;5000461;28;20484;-83
2022/10/01 03:25:14;;;;;;;799.97;751.27;;;10.90;99.90;;;;;;5000954;28;20458;-83
2022/10/01 03:27:41;;;;;;;813.93;761.43;;;10.90;99.90;;;;;;5000343;28;20521;-85
2022/10/01 03:30:09;;;;;;;798.27;750.47;;;10.90;99.90;;;;;;4998780;28;20824;-85
2022/10/01 03:32:36;;;;;;;812.00;761.43;;;10.90;99.90;;;;;;4998681;28;20464;-85
2022/10/01 03:35:02;;;;;;;801.70;752.20;;;10.90;99.90;;;;;;4998342;28;20501;-84
2022/10/01 03:37:29;;;;;;;799.53;746.93;;;11.00;99.90;;;;;;4998236;28;20477;-84
2022/10/01 03:39:57;;;;;;;806.63;753.23;;;11.00;99.90;;;;;;4998542;28;20457;-84
2022/10/01 03:42:24;;;;;;;811.60;756.03;;;11.00;99.90;;;;;;4998648;28;20813;-84
2022/10/01 03:44:50;;;;;;;820.80;763.30;;;11.00;99.90;;;;;;4997592;28;20458;-83
2022/10/01 03:47:17;;;;;;;821.57;766.10;;;11.00;99.90;;;;;;4997267;28;20482;-83
2022/10/01 03:49:44;;;;;;;816.30;760.63;;;11.00;99.90;;;;;;4997942;28;20480;-84
2022/10/01 03:52:11;;;;;;;783.43;730.27;;;11.10;99.90;;;;;;4998585;28;20454;-84
2022/10/01 03:54:38;;;;;;;769.43;719.57;;;11.10;99.90;;;;;;4997766;28;20457;-84
2022/10/01 03:57:06;;;;;;;780.70;730.40;;;11.20;99.90;;;;;;4997746;28;20480;-85
2022/10/01 03:59:35;;;;;;;755.60;707.70;;;11.20;99.90;;;;;;4997383;28;20454;-84
2022/10/01 04:02:02;;;;;;;760.70;713.60;;;11.10;99.90;;;;;;4997360;28;20458;-85
2022/10/01 04:04:29;;;;;;;715.57;678.30;;;11.30;99.90;;;;;;4996708;28;20496;-84
2022/10/01 04:06:56;;;;;;;595.27;571.50;;;11.30;99.90;;;;;;4996652;28;20861;-84
2022/10/01 04:09:22;;;;;;;744.87;702.20;;;11.40;99.90;;;;;;4996548;28;20465;-84
2022/10/01 04:11:49;;;;;;;775.73;728.07;;;11.30;99.90;;;;;;4996970;28;20464;-84
2022/10/01 04:14:17;;;;;;;768.37;722.37;;;11.30;99.90;;;;;;4997429;28;20458;-84
2022/10/01 04:16:44;;;;;;;778.47;729.50;;;11.20;99.90;;;;;;4997685;28;20466;-84
2022/10/01 04:19:11;;;;;;;709.07;674.50;;;11.20;99.90;;;;;;4996942;28;20456;-85
2022/10/01 04:21:37;;;;;;;756.53;714.83;;;11.20;99.90;;;;;;4996778;28;20461;-84
2022/10/01 04:24:04;;;;;;;763.17;717.07;;;11.30;99.90;;;;;;4997218;28;20454;-85
2022/10/01 04:26:31;;;;;;;778.30;732.00;;;11.30;99.90;;;;;;4997062;28;20470;-85
2022/10/01 04:28:58;;;;;;;778.40;731.07;;;11.30;99.90;;;;;;4997222;28;20485;-85
2022/10/01 04:31:26;;;;;;;797.33;744.30;;;11.30;99.90;;;;;;4996282;28;20489;-85
2022/10/01 04:33:54;;;;;;;786.47;737.33;;;11.20;99.90;;;;;;4996066;28;20454;-85
2022/10/01 04:36:22;;;;;;;793.23;741.33;;;11.30;99.90;;;;;;4998164;28;20474;-84
2022/10/01 04:38:51;;;;;;;805.07;750.17;;;11.40;99.90;;;;;;4998780;28;20973;-85
2022/10/01 04:41:18;;;;;;;805.53;748.80;;;11.50;99.90;;;;;;4996618;28;20478;-84
2022/10/01 04:43:45;;;;;;;807.43;750.23;;;11.50;99.90;;;;;;4996620;28;20464;-86
2022/10/01 04:46:13;;;;;;;816.07;757.23;;;11.50;99.90;;;;;;4996270;28;20473;-85
2022/10/01 04:48:41;;;;;;;812.63;754.13;;;11.60;99.90;;;;;;4996171;28;20518;-86
2022/10/01 04:51:08;;;;;;;826.37;768.00;;;11.60;99.90;;;;;;4996111;28;20965;-85
2022/10/01 04:53:34;;;;;;;817.93;760.57;;;11.60;99.90;;;;;;4996115;28;20466;-85
2022/10/01 04:56:03;;;;;;;829.40;773.27;;;11.70;99.90;;;;;;4995911;28;20464;-85
2022/10/01 04:58:30;;;;;;;840.47;787.77;;;11.70;99.90;;;;;;4995796;28;20451;-85
2022/10/01 05:00:57;;;;;;;832.20;783.47;;;11.80;99.90;;;;;;4995480;28;21128;-84
2022/10/01 05:03:24;;;;;;;824.87;778.60;;;11.90;99.90;;;;;;4995019;28;20453;-85
2022/10/01 05:05:52;;;;;;;801.97;757.67;;;12.00;99.90;;;;;;4994984;28;20965;-84
2022/10/01 05:08:19;;;;;;;774.97;735.07;;;11.90;99.90;;;;;;5019358;22;20485;-85
2022/10/01 05:10:46;;;;;;;766.23;728.93;;;12.00;99.90;;;;;;4994820;28;20454;-86
2022/10/01 05:13:13;;;;;;;774.83;737.40;;;11.90;99.90;;;;;;4995135;28;20493;-89
2022/10/01 05:15:40;;;;;;;773.67;736.87;;;11.90;99.90;;;;;;4994697;28;20454;-86
2022/10/01 05:18:07;;;;;;;778.93;739.67;;;11.80;99.90;;;;;;4994869;28;20470;-87
2022/10/01 05:20:33;;;;;;;789.33;748.87;;;11.80;99.90;;;;;;4994842;28;20454;-87
2022/10/01 05:23:01;;;;;;;752.93;718.47;;;11.70;99.90;;;;;;4994816;28;20454;-87
2022/10/01 05:25:28;;;;;;;786.17;745.87;;;11.80;99.90;;;;;;4994674;28;20458;-87
2022/10/01 05:28:03;;;;;;;807.63;763.47;;;11.70;99.90;;;;;;4993961;28;20485;-87
2022/10/01 05:30:30;;;;;;;822.00;775.80;;;11.70;99.90;;;;;;4994268;28;20546;-86
2022/10/01 05:32:59;;;;;;;821.50;776.80;;;11.80;99.90;;;;;;4994338;28;20458;-88
2022/10/01 05:35:27;;;;;;;822.17;774.57;;;11.80;99.90;;;;;;4994011;28;20454;-86
2022/10/01 05:37:54;;;;;;;834.03;785.07;;;11.70;99.90;;;;;;4994036;28;20514;-87
2022/10/01 05:40:24;;;;;;;838.60;789.00;;;11.80;99.90;;;;;;4994412;28;20462;-88
2022/10/01 05:42:51;;;;;;;846.70;795.67;;;11.80;99.90;;;;;;4994488;28;20461;-87
2022/10/01 05:45:19;;;;;;;844.30;792.87;;;11.90;99.90;;;;;;4992201;28;20465;-88
2022/10/01 05:47:47;;;;;;;848.67;798.77;;;12.00;99.90;;;;;;4993863;28;20914;-88
2022/10/01 05:50:14;;;;;;;835.17;785.00;;;12.10;99.90;;;;;;4994533;28;20992;-87
2022/10/01 05:52:48;;;;;;;839.77;791.37;;;12.10;99.90;;;;;;4994076;28;20466;-87
2022/10/01 05:55:14;;;;;;;809.53;768.23;;;12.10;99.90;;;;;;4993955;28;20465;-87
2022/10/01 05:57:43;;;;;;;760.87;724.87;;;12.40;99.90;;;;;;4995185;28;20470;-87
2022/10/01 06:00:11;;;;;;;648.10;621.97;;;12.30;99.90;;;;;;4994168;28;20458;-87
2022/10/01 06:02:38;;;;;;;631.33;606.03;;;12.40;99.90;;;;;;4994322;28;20465;-85
2022/10/01 06:05:05;;;;;;;614.80;589.87;;;12.60;99.90;;;;;;4994047;28;20481;-84
2022/10/01 06:07:32;;;;;;;626.40;601.00;;;12.50;99.90;;;;;;4993451;28;20482;-86
2022/10/01 06:09:59;;;;;;;588.87;565.70;;;12.50;99.90;;;;;;4993813;28;21150;-87
2022/10/01 06:12:26;;;;;;;587.07;563.53;;;12.60;99.90;;;;;;4992807;28;20958;-87
2022/10/01 06:14:54;;;;;;;518.93;499.87;;;12.60;99.90;;;;;;4993359;28;20866;-87
2022/10/01 06:17:20;;;;;;;421.13;406.63;;;12.60;99.90;;;;;;4994570;28;20478;-88
2022/10/01 06:19:47;;;;;;;436.03;420.87;;;12.70;99.90;;;;;;4992774;28;20450;-87
2022/10/01 06:22:14;;;;;;;476.43;459.23;;;12.80;99.90;;;;;;4993945;28;20454;-87
2022/10/01 06:24:40;;;;;;;451.03;435.43;;;12.80;99.90;;;;;;4994131;28;20845;-86
2022/10/01 06:27:07;;;;;;;449.23;433.73;;;12.80;99.90;;;;;;4992754;28;20489;-85
2022/10/01 06:29:34;;;;;;;490.30;472.80;;;12.80;99.90;;;;;;4994001;28;20478;-85
2022/10/01 06:32:02;;;;;;;501.77;483.53;;;12.70;99.90;;;;;;4993006;28;20461;-84
2022/10/01 06:34:29;;;;;;;523.73;504.90;;;12.80;99.90;;;;;;4992641;28;20465;-87
2022/10/01 06:36:55;;;;;;;576.30;554.20;;;12.90;99.90;;;;;;4993644;28;20477;-85
2022/10/01 06:39:22;;;;;;;549.53;528.90;;;12.80;99.90;;;;;;4992019;28;20461;-85
2022/10/01 06:41:49;;;;;;;525.60;506.00;;;13.00;99.90;;;;;;4993434;28;21096;-85
2022/10/01 06:44:15;;;;;;;560.63;539.23;;;12.90;99.90;;;;;;4993213;28;20457;-86
2022/10/01 06:46:42;;;;;;;539.80;519.53;;;13.00;99.90;;;;;;4992724;28;20458;-87
2022/10/01 06:49:10;;;;;;;563.90;542.33;;;13.00;99.90;;;;;;4993802;28;20873;-87
2022/10/01 06:54:20;;;;;;;468.20;451.50;;;13.10;99.90;;;;;;4962795;28;20446;-87
2022/10/01 06:56:47;;;;;;;533.93;513.87;;;13.20;99.90;;;;;;4993500;28;20477;-84
2022/10/01 06:59:13;;;;;;;463.70;447.43;;;13.20;99.90;;;;;;4993942;28;20465;-86
2022/10/01 07:01:40;;;;;;;448.30;433.10;;;13.20;99.90;;;;;;4993349;28;20450;-86
2022/10/01 07:04:07;;;;;;;448.97;433.63;;;13.20;99.90;;;;;;4993571;28;20450;-86
2022/10/01 07:06:35;;;;;;;497.50;480.23;;;13.20;99.90;;;;;;4993012;28;20465;-86
2022/10/01 07:09:01;;;;;;;494.63;477.07;;;13.30;99.90;;;;;;4993358;28;20478;-86
2022/10/01 07:11:28;;;;;;;491.27;474.07;;;13.30;99.90;;;;;;4993421;28;20771;-87
2022/10/01 07:13:56;;;;;;;513.20;495.27;;;13.40;99.90;;;;;;4993031;28;20458;-86
2022/10/01 07:16:23;;;;;;;545.80;526.20;;;13.50;99.90;;;;;;4992031;28;20472;-87
2022/10/01 07:18:49;;;;;;;449.60;434.23;;;13.50;99.90;;;;;;4993191;28;20454;-85
2022/10/01 07:21:16;;;;;;;395.33;382.67;;;13.70;99.90;;;;;;4993229;28;20458;-87
2022/10/01 07:23:44;;;;;;;269.80;261.43;;;13.60;99.90;;;;;;4992560;28;20460;-87
2022/10/01 07:26:11;;;;;;;317.97;308.10;;;13.60;99.90;;;;;;4993123;28;20481;-86
2022/10/01 07:28:37;;;;;;;256.50;248.80;;;13.60;99.90;;;;;;4992969;28;20490;-86
2022/10/01 07:31:09;;;;;;;273.20;265.00;;;13.60;99.90;;;;;;4993819;28;20874;-87
2022/10/01 07:33:35;;;;;;;254.13;246.30;;;13.70;99.90;;;;;;4993204;28;20915;-87
2022/10/01 07:36:04;;;;;;;321.07;311.37;;;13.80;99.90;;;;;;4994881;28;20512;-87
2022/10/01 07:38:32;;;;;;;221.60;214.80;;;13.80;99.90;;;;;;4994856;28;20474;-87
2022/10/01 07:41:01;;;;;;;255.77;247.97;;;13.80;99.90;;;;;;4994198;28;20454;-88
2022/10/01 07:43:28;;;;;;;232.47;224.87;;;14.00;99.90;;;;;;4993389;28;20664;-87
2022/10/01 07:45:56;;;;;;;165.00;159.10;;;14.00;99.90;;;;;;4992959;28;20955;-87
2022/10/01 07:48:23;;;;;;;142.50;137.73;;;14.10;99.90;;;;;;4992506;28;20486;-87
2022/10/01 07:50:50;;;;;;;146.03;141.23;;;14.40;99.90;;;;;;4993062;28;20480;-87
2022/10/01 07:53:18;;;;;;;62.70;60.00;;;14.50;99.90;;;;;;4993329;28;20519;-88
2022/10/01 07:55:45;;;;;;;58.90;56.50;;;14.40;99.90;;;;;;4992606;28;20450;-87
2022/10/01 07:58:13;;;;;;;56.77;54.47;;;14.50;99.90;;;;;;4993179;28;20485;-87
2022/10/01 08:00:39;;;;;;;106.27;102.70;;;14.40;99.90;;;;;;4992953;28;20450;-87
2022/10/01 08:03:06;;;;;;;142.27;137.60;;;14.20;99.90;;;;;;4993318;28;20464;-88
2022/10/01 08:05:35;;;;;;;342.03;332.20;;;13.90;99.90;;;;;;4993850;28;20458;-86
2022/10/01 08:08:04;;;;;;;527.63;511.53;;;13.40;99.90;;;;;;4996791;28;21091;-88
2022/10/01 08:10:34;;;;;;;654.70;630.53;;;13.30;99.90;;;;;;4997226;28;20477;-88
2022/10/01 08:13:04;;;;;;;711.97;680.77;;;13.30;99.90;;;;;;5000588;28;20457;-87
2022/10/01 08:15:32;;;;;;;731.60;697.33;;;13.20;99.90;;;;;;5000476;28;20460;-89
2022/10/01 08:18:01;;;;;;;749.50;713.17;;;13.30;99.90;;;;;;5001285;28;20484;-87
2022/10/01 08:20:28;;;;;;;777.17;736.67;;;13.30;99.90;;;;;;5001827;28;20465;-87
2022/10/01 08:23:00;;;;;;;781.07;738.27;;;13.40;99.90;;;;;;5002234;28;20458;-88
2022/10/01 08:25:27;;;;;;;781.63;739.27;;;13.50;99.90;;;;;;5001762;28;20947;-89
2022/10/01 08:27:54;;;;;;;775.43;733.27;;;13.70;99.90;;;;;;4999456;28;20481;-86
2022/10/01 08:30:20;;;;;;;776.20;728.80;;;13.60;99.90;;;;;;4996577;28;20816;-88
2022/10/01 08:32:48;;;;;;;759.20;709.90;;;13.50;99.90;;;;;;4997965;28;20462;-88
2022/10/01 08:35:15;;;;;;;774.60;724.47;;;13.70;99.90;;;;;;5001088;28;20454;-88
2022/10/01 08:37:42;;;;;;;771.90;722.00;;;13.80;99.90;;;;;;5000343;28;20477;-88
2022/10/01 08:40:10;;;;;;;773.90;725.57;;;14.00;99.90;;;;;;4999422;28;20454;-87
2022/10/01 08:42:46;;;;;;;775.43;728.70;;;14.00;99.90;;;;;;4997771;28;20462;-86
2022/10/01 08:45:17;;;;;;;773.23;727.10;;;14.00;99.90;;;;;;4995981;28;20875;-87
2022/10/01 08:47:48;;;;;;;759.43;714.90;;;14.00;99.90;;;;;;4997803;28;20482;-87
2022/10/01 08:50:24;;;;;;;733.17;695.53;;;13.90;99.90;;;;;;4998937;28;20481;-86
2022/10/01 08:52:56;;;;;;;739.50;703.00;;;13.90;99.90;;;;;;4997920;28;20454;-89
2022/10/01 08:55:26;;;;;;;735.83;700.40;;;14.10;99.90;;;;;;4998203;28;20454;-89
2022/10/01 08:57:56;;;;;;;745.90;710.60;;;14.20;99.90;;;;;;4998249;28;20485;-87
2022/10/01 09:00:23;;;;;;;747.57;713.63;;;14.40;99.90;;;;;;5000424;28;20461;-89
2022/10/01 09:02:51;;;;;;;729.10;698.00;;;14.50;99.90;;;;;;4997750;28;20963;-86
2022/10/01 09:05:25;;;;;;;728.70;697.50;;;14.60;99.90;;;;;;4997882;28;20565;-87
2022/10/01 09:08:14;;;;;;;695.60;668.30;;;14.70;99.90;;;;;;4997181;28;20481;-88
2022/10/01 09:10:45;;;;;;;704.63;677.10;;;14.60;99.90;;;;;;4999289;28;20481;-87
2022/10/01 09:13:29;;;;;;;642.53;619.33;;;14.40;99.90;;;;;;4997353;28;20454;-87
2022/10/01 09:16:02;;;;;;;687.60;662.20;;;14.00;99.90;;;;;;4996338;28;20825;-88
2022/10/01 09:18:40;;;;;;;693.93;668.50;;;13.70;99.90;;;;;;5003502;28;20484;-87
2022/10/01 09:21:17;;;;;;;644.23;622.23;;;13.70;99.90;;;;;;4993480;28;20477;-86
2022/10/01 09:23:54;;;;;;;622.43;602.03;;;13.60;99.90;;;;;;4993884;28;20454;-87
2022/10/01 09:26:21;;;;;;;651.40;629.90;;;13.60;99.90;;;;;;4998934;28;20449;-88
2022/10/01 09:28:52;;;;;;;621.60;601.40;;;13.50;99.90;;;;;;5001272;28;20565;-87
2022/10/01 09:31:24;;;;;;;624.77;604.43;;;13.50;99.90;;;;;;4998612;28;20454;-88
2022/10/01 09:33:57;;;;;;;603.77;584.73;;;13.50;99.90;;;;;;5003075;28;20465;-88
2022/10/01 09:36:34;;;;;;;591.37;573.07;;;13.60;99.90;;;;;;4998932;28;20534;-88
2022/10/01 09:39:11;;;;;;;608.40;589.40;;;13.70;99.90;;;;;;4981645;28;20457;-89
2022/10/01 09:41:38;;;;;;;593.27;574.87;;;13.90;99.90;;;;;;4981379;28;20458;-87
2022/10/01 09:44:05;;;;;;;537.47;521.60;;;14.10;99.90;;;;;;4998552;28;20458;-88
2022/10/01 09:46:33;;;;;;;595.33;577.00;;;13.90;99.90;;;;;;5001401;28;20458;-88
2022/10/01 09:49:05;;;;;;;579.37;561.77;;;14.00;99.90;;;;;;4996867;28;20497;-89
2022/10/01 09:51:39;;;;;;;615.20;596.07;;;14.00;99.90;;;;;;5000238;28;20453;-89
2022/10/01 09:54:15;;;;;;;588.60;570.60;;;14.20;99.90;;;;;;4998906;28;20449;-88
2022/10/01 09:56:46;;;;;;;613.07;593.97;;;14.20;99.90;;;;;;4991703;28;20457;-89
2022/10/01 09:59:20;;;;;;;575.43;557.93;;;14.30;99.90;;;;;;4999137;28;20461;-88
2022/10/01 10:01:51;;;;;;;586.70;568.70;;;14.30;99.90;;;;;;4999892;28;20461;-88
2022/10/01 10:04:20;;;;;;;533.70;517.80;;;14.30;99.90;;;;;;5000187;28;20464;-89
2022/10/01 10:06:48;;;;;;;530.10;514.30;;;14.20;99.90;;;;;;4999392;28;20501;-87
2022/10/01 10:09:18;;;;;;;588.80;570.60;;;14.20;99.90;;;;;;4999439;28;20510;-85
2022/10/01 10:11:45;;;;;;;579.20;561.40;;;14.40;99.90;;;;;;5000852;28;20457;-89
2022/10/01 10:14:18;;;;;;;600.57;581.50;;;14.60;99.90;;;;;;5002775;28;20469;-88
2022/10/01 10:16:47;;;;;;;424.10;410.47;;;15.30;99.90;;;;;;4999751;28;20473;-90
2022/10/01 10:19:19;;;;;;;367.17;355.43;;;16.00;99.90;;;;;;5000818;28;20463;-86
2022/10/01 10:21:52;;;;;;;416.70;402.70;;;15.90;99.90;;;;;;4999535;28;20837;-86
2022/10/01 10:24:26;;;;;;;471.33;454.97;;;15.60;99.90;;;;;;5000571;28;20868;-90
2022/10/01 10:26:55;;;;;;;475.53;458.97;;;15.40;99.90;;;;;;4998846;28;21060;-88
2022/10/01 10:29:27;;;;;;;509.90;492.10;;;15.20;99.90;;;;;;5000144;28;20487;-89
2022/10/01 10:31:54;;;;;;;396.70;384.03;;;15.90;99.90;;;;;;4998718;28;20455;-86
2022/10/01 10:34:30;;;;;;;321.97;312.17;;;16.70;99.90;;;;;;5000342;28;20451;-86
2022/10/01 10:37:03;;;;;;;273.80;265.50;;;17.40;99.90;;;;;;5001221;28;20479;-87
2022/10/01 10:39:33;;;;;;;331.77;321.40;;;17.40;99.90;;;;;;4999334;28;20447;-86
2022/10/01 10:42:02;;;;;;;243.20;235.90;;;18.10;99.90;;;;;;4999328;28;20456;-86
2022/10/01 10:44:34;;;;;;;182.37;176.73;;;18.30;97.80;;;;;;4999176;28;21024;-86
2022/10/01 10:47:05;;;;;;;159.83;154.73;;;18.60;97.20;;;;;;4997364;28;20572;-86
2022/10/01 10:49:34;;;;;;;106.53;103.03;;;18.70;97.60;;;;;;4995587;28;20561;-85
2022/10/01 10:52:03;;;;;;;63.50;61.03;;;18.80;94.60;;;;;;4998933;28;20451;-86
2022/10/01 10:54:32;;;;;;;34.70;33.40;;;18.90;94.90;;;;;;4995661;28;20538;-86
2022/10/01 10:57:02;;;;;;;20.90;20.00;;;18.70;94.60;;;;;;4996381;28;20488;-86
2022/10/01 10:59:31;;;;;;;14.93;14.23;;;19.00;91.70;;;;;;5000059;28;20448;-86
2022/10/01 11:01:59;;;;;;;9.30;8.80;;;19.10;92.50;;;;;;4997539;28;20458;-86
2022/10/01 11:04:39;;;;;;;6.50;6.10;;;18.90;91.20;;;;;;4998751;28;20461;-86
2022/10/01 11:07:07;;;;;;;5.80;5.40;;;18.50;90.10;;;;;;5021374;23;21634;-84
2022/10/01 11:09:59;;;;;;;4.40;4.00;;;18.50;91.80;;;;;;4996375;28;20481;-84
2022/10/01 11:12:39;;;;;;;3.60;2.93;;;18.30;91.00;;;;;;4999188;28;20494;-82
2022/10/01 11:15:22;;;;;;;3.40;2.30;;;18.20;90.90;;;;;;4996299;28;20896;-84
2022/10/01 11:18:25;;;;;;;3.30;2.00;;;18.30;91.00;;;;;;4994972;28;20544;-87
2022/10/01 11:21:02;;;;;;;3.20;1.60;;;18.40;90.30;;;;;;4993594;28;20458;-85
2022/10/01 11:23:47;;;;;;;3.10;1.30;;;18.90;90.10;;;;;;4960366;28;20445;-85
2022/10/01 11:26:23;;;;;;;3.10;1.30;;;19.20;85.40;;;;;;4975650;28;20511;-85
2022/10/01 11:29:06;;;;;;;3.00;1.00;;;19.00;87.70;;;;;;4974337;28;20485;-85
2022/10/01 11:31:39;;;;;;;3.00;0.90;;;18.50;87.40;;;;;;4954687;29;20471;-84
2022/10/01 11:34:29;;;;;;;3.07;1.00;;;18.40;88.80;;;;;;4965825;28;20455;-84
2022/10/01 11:37:05;;;;;;;3.00;0.87;;;18.00;89.70;;;;;;4971333;28;20462;-84
2022/10/01 11:39:35;;;;;;;3.07;1.00;;;17.60;90.70;;;;;;4973119;28;20451;-84
2022/10/01 11:42:07;;;;;;;3.00;0.70;;;17.50;91.20;;;;;;4975397;28;20449;-84
2022/10/01 11:44:40;;;;;;;3.00;0.70;;;17.40;91.90;;;;;;4976793;28;20992;-84
2022/10/01 11:47:11;;;;;;;3.10;1.10;;;17.50;91.90;;;;;;4976045;28;20465;-85
2022/10/01 11:49:48;;;;;;;3.10;1.00;;;17.30;91.20;;;;;;4974846;28;20508;-85
2022/10/01 11:52:31;;;;;;;3.00;0.70;;;17.30;91.60;;;;;;4974580;28;20458;-85
2022/10/01 12:00:39;;;;;;;3.00;0.70;;;17.30;90.90;;;;;;4976153;28;20438;-85
2022/10/01 12:03:15;;;;;;;3.00;0.70;;;17.00;90.40;;;;;;4973820;28;20440;-85
2022/10/01 12:05:42;;;;;;;2.90;0.70;;;16.70;91.10;;;;;;4971232;28;20458;-85
2022/10/01 12:08:17;;;;;;;2.93;0.70;;;16.40;91.10;;;;;;4974627;28;20557;-85
2022/10/01 12:10:50;;;;;;;3.00;0.60;;;16.30;92.80;;;;;;4974087;28;20469;-85
2022/10/01 12:13:24;;;;;;;3.00;0.70;;;16.20;93.50;;;;;;4975393;28;21083;-85
2022/10/01 12:15:57;;;;;;;2.90;0.70;;;16.10;91.80;;;;;;4974099;28;20458;-85
2022/10/01 12:18:30;;;;;;;3.00;0.70;;;16.30;91.10;;;;;;4976254;28;20478;-85
2022/10/01 12:21:00;;;;;;;2.93;0.70;;;16.60;91.20;;;;;;4976267;28;20489;-84
2022/10/01 12:23:31;;;;;;;2.93;0.60;;;16.80;90.00;;;;;;4967755;28;20832;-84
2022/10/01 12:26:06;;;;;;;3.00;0.70;;;16.90;90.40;;;;;;4972942;28;20958;-84
2022/10/01 12:28:39;;;;;;;3.00;0.70;;;17.00;88.80;;;;;;4975039;28;20475;-85
2022/10/01 12:31:14;;;;;;;3.00;0.70;;;17.70;89.30;;;;;;4974469;28;20504;-85
2022/10/01 12:34:02;;;;;;;3.00;0.60;;;18.60;84.90;;;;;;4975330;28;20866;-85
2022/10/01 12:36:38;;;;;;;3.00;0.60;;;19.40;78.90;;;;;;4973868;28;20451;-86
2022/10/01 12:39:19;;;;;;;3.30;1.00;;;19.80;74.90;;;;;;4975168;28;20472;-85